Terminal Aerodrome Forecast
Issued by NWS Sioux Falls, SD

Home | Current Version | Previous Version | Graphics & Text | Print | Product List | Glossary On
Versions: 1 2 3 4 5 6 7 8 9 10 11 12 13 14 15 16 17 18 19 20 21 22 23 24 25 26 27 28 29 30 31 32 33 34 35 36
887
FTUS43 KFSD 050532
TAFSUX
TAF
KSUX 050532Z 0506/0606 VRB03KT P6SM OVC250
      TEMPO 0506/0508 4SM BR SCT002
     FM051200 14007KT P6SM BKN120
     FM051600 15010KT P6SM SCT025 OVC080
     FM051900 25010KT 2SM -SN BKN012 OVC020
     FM052200 32010KT 4SM -SN BR OVC010
     FM060200 32010KT P6SM OVC015=

USA.gov is the U.S. government's official web portal to all federal, state and local government web resources and services.